createdAt,value
2023-04-20T00:03:14.057Z,9.89
2023-04-20T00:06:55.832Z,9.79
2023-04-20T00:10:24.954Z,9.73
2023-04-20T00:14:12.615Z,9.80
2023-04-20T00:18:01.803Z,9.93
2023-04-20T00:21:50.892Z,10.05
2023-04-20T00:25:03.825Z,10.11
2023-04-20T00:28:42.963Z,10.11
2023-04-20T00:32:32.170Z,10.24
2023-04-20T00:36:21.314Z,10.35
2023-04-20T00:39:31.354Z,10.45
2023-04-20T00:43:20.649Z,10.53
2023-04-20T00:47:00.582Z,10.59
2023-04-20T00:50:32.040Z,10.68
2023-04-20T00:54:08.920Z,10.73
2023-04-20T00:57:41.069Z,10.76
2023-04-20T01:01:19.329Z,10.78
2023-04-20T01:04:59.258Z,10.83
2023-04-20T01:08:25.903Z,10.87
2023-04-20T01:12:04.942Z,10.92
2023-04-20T01:15:26.982Z,10.96
2023-04-20T01:19:04.359Z,10.93
2023-04-20T01:22:58.660Z,11.00
2023-04-20T01:26:06.596Z,11.04
2023-04-20T01:29:55.693Z,11.04
2023-04-20T01:33:24.427Z,10.99
2023-04-20T01:37:02.457Z,10.96
2023-04-20T01:40:27.343Z,10.90
2023-04-20T01:44:09.078Z,10.91
2023-04-20T01:47:46.733Z,10.85
2023-04-20T01:51:16.301Z,10.80
2023-04-20T01:54:58.218Z,10.75
2023-04-20T01:58:29.603Z,10.68
2023-04-20T02:02:03.977Z,10.78
2023-04-20T02:05:28.511Z,10.84
2023-04-20T02:08:52.702Z,10.86
2023-04-20T02:12:09.711Z,10.87
2023-04-20T02:15:38.687Z,10.91
2023-04-20T02:19:06.579Z,10.94
2023-04-20T02:22:24.165Z,10.91
2023-04-20T02:26:13.275Z,10.81
2023-04-20T02:29:45.085Z,10.93
2023-04-20T02:32:49.913Z,10.97
2023-04-20T02:36:14.953Z,10.99
2023-04-20T02:39:28.768Z,10.96
2023-04-20T02:42:38.768Z,10.95
2023-04-20T02:46:09.766Z,10.88
2023-04-20T02:49:34.629Z,10.93
2023-04-20T02:53:10.473Z,10.92
2023-04-20T02:56:41.519Z,10.81
2023-04-20T03:00:24.251Z,10.78
2023-04-20T03:04:04.323Z,10.68
2023-04-20T03:07:38.825Z,10.56
2023-04-20T03:11:19.554Z,10.53
2023-04-20T03:14:49.310Z,10.58
2023-04-20T03:18:16.884Z,10.68
2023-04-20T03:21:59.082Z,10.67
2023-04-20T03:25:14.558Z,10.81
2023-04-20T03:28:56.982Z,10.85
2023-04-20T03:32:08.529Z,10.78
2023-04-20T03:35:44.317Z,10.64
2023-04-20T03:39:34.629Z,10.59
2023-04-20T03:43:16.918Z,10.51
2023-04-20T03:46:50.328Z,10.48
2023-04-20T03:50:19.423Z,10.51
2023-04-20T03:53:35.216Z,10.64
2023-04-20T03:57:15.391Z,10.73
2023-04-20T04:00:24.193Z,10.78
2023-04-20T04:03:31.055Z,10.83
2023-04-20T04:06:22.296Z,10.90
2023-04-20T04:09:36.239Z,10.96
2023-04-20T04:12:59.497Z,11.02
2023-04-20T04:15:57.174Z,11.07
2023-04-20T04:18:32.467Z,11.16
2023-04-20T04:21:06.922Z,11.25
2023-04-20T04:24:04.988Z,11.33
2023-04-20T04:27:05.503Z,11.41
2023-04-20T04:29:45.697Z,11.45
2023-04-20T04:32:26.464Z,11.39
2023-04-20T04:35:26.345Z,11.33
2023-04-20T04:38:33.662Z,11.31
2023-04-20T04:41:49.517Z,11.26
2023-04-20T04:44:39.644Z,11.29
2023-04-20T04:47:14.552Z,11.40
2023-04-20T04:49:54.268Z,11.49
2023-04-20T04:52:37.939Z,11.58
2023-04-20T04:55:48.011Z,11.60
2023-04-20T04:58:31.317Z,11.55
2023-04-20T05:01:27.789Z,11.62
2023-04-20T05:04:34.625Z,11.65
2023-04-20T05:07:21.454Z,11.69
2023-04-20T05:10:29.145Z,11.72
2023-04-20T05:13:30.704Z,11.74
2023-04-20T05:16:30.239Z,11.77
2023-04-20T05:19:22.450Z,11.81
2023-04-20T05:22:54.297Z,11.82
2023-04-20T05:26:06.542Z,11.69
2023-04-20T05:28:43.098Z,11.66
2023-04-20T05:31:45.721Z,11.63
2023-04-20T05:34:26.111Z,11.55
2023-04-20T05:37:13.523Z,11.57
2023-04-20T05:39:54.917Z,11.62
2023-04-20T05:42:52.580Z,11.69
2023-04-20T05:45:29.940Z,11.75
2023-04-20T05:48:33.982Z,11.80
2023-04-20T05:51:34.505Z,11.84
2023-04-20T05:54:28.496Z,11.84
2023-04-20T05:57:05.673Z,11.84
2023-04-20T05:59:56.264Z,11.85
2023-04-20T06:02:35.853Z,11.84
2023-04-20T06:05:34.398Z,11.83
2023-04-20T06:08:50.972Z,11.88
2023-04-20T06:11:36.279Z,11.96
2023-04-20T06:14:18.272Z,12.00
2023-04-20T06:17:21.301Z,12.07
2023-04-20T06:20:23.141Z,12.20
2023-04-20T06:23:28.578Z,12.35
2023-04-20T06:26:25.518Z,12.52
2023-04-20T06:29:04.575Z,12.67
2023-04-20T06:31:58.406Z,12.82
2023-04-20T06:34:51.284Z,12.95
2023-04-20T06:37:38.991Z,13.06
2023-04-20T06:40:43.240Z,12.85
2023-04-20T06:43:50.093Z,11.87
2023-04-20T06:46:36.470Z,10.93
2023-04-20T06:49:16.645Z,10.52
2023-04-20T06:52:34.184Z,10.95
2023-04-20T06:55:49.256Z,11.44
2023-04-20T06:58:25.809Z,11.80
2023-04-20T07:01:03.504Z,11.97
2023-04-20T07:03:54.310Z,12.12
2023-04-20T07:06:43.267Z,12.22
2023-04-20T07:09:23.425Z,12.50
2023-04-20T07:12:02.867Z,12.73
2023-04-20T07:14:43.220Z,12.85
2023-04-20T07:17:20.500Z,13.11
2023-04-20T07:20:26.180Z,13.32
2023-04-20T07:23:05.187Z,13.52
2023-04-20T07:26:17.794Z,13.76
2023-04-20T07:28:58.470Z,13.94
2023-04-20T07:31:52.436Z,14.10
2023-04-20T07:34:30.132Z,14.18
2023-04-20T07:37:10.182Z,14.34
2023-04-20T07:39:43.682Z,14.45
2023-04-20T07:42:15.546Z,14.52
2023-04-20T07:44:59.072Z,14.59
2023-04-20T07:47:51.541Z,14.52
2023-04-20T07:50:26.649Z,13.82
2023-04-20T07:53:03.751Z,13.26
2023-04-20T07:55:37.464Z,12.97
2023-04-20T07:58:06.332Z,13.38
2023-04-20T08:00:38.491Z,13.89
2023-04-20T08:03:23.384Z,14.30
2023-04-20T08:05:57.768Z,14.72
2023-04-20T08:08:47.961Z,15.08
2023-04-20T08:11:19.506Z,15.38
2023-04-20T08:14:11.131Z,15.47
2023-04-20T08:16:55.072Z,14.94
2023-04-20T08:19:26.872Z,14.39
2023-04-20T08:22:01.502Z,14.06
2023-04-20T08:24:41.402Z,13.92
2023-04-20T08:27:32.413Z,14.40
2023-04-20T08:30:08.977Z,14.90
2023-04-20T08:32:45.471Z,15.21
2023-04-20T08:35:41.977Z,15.46
2023-04-20T08:38:32.902Z,15.75
2023-04-20T08:41:09.589Z,15.87
2023-04-20T08:43:50.936Z,15.45
2023-04-20T08:46:34.041Z,15.04
2023-04-20T08:49:24.554Z,14.71
2023-04-20T08:52:10.957Z,14.40
2023-04-20T08:54:56.866Z,14.05
2023-04-20T08:57:35.457Z,13.88
2023-04-20T09:00:16.228Z,14.36
2023-04-20T09:03:02.066Z,14.82
2023-04-20T09:05:53.015Z,15.18
2023-04-20T09:08:34.805Z,15.46
2023-04-20T09:11:39.233Z,15.76
2023-04-20T09:14:24.820Z,15.82
2023-04-20T09:17:14.928Z,15.45
2023-04-20T09:20:06.827Z,15.08
2023-04-20T09:22:47.487Z,14.84
2023-04-20T09:25:32.656Z,14.74
2023-04-20T09:28:24.483Z,14.57
2023-04-20T09:30:56.445Z,14.28
2023-04-20T09:33:41.309Z,14.20
2023-04-20T09:36:26.789Z,14.80
2023-04-20T09:39:16.302Z,15.43
2023-04-20T09:41:51.212Z,16.05
2023-04-20T09:44:30.111Z,16.48
2023-04-20T09:47:06.782Z,16.22
2023-04-20T09:49:53.195Z,15.92
2023-04-20T09:52:30.469Z,15.70
2023-04-20T09:55:14.511Z,15.57
2023-04-20T09:57:50.257Z,15.43
2023-04-20T10:00:27.560Z,15.37
2023-04-20T10:03:05.233Z,15.31
2023-04-20T10:05:39.859Z,15.31
2023-04-20T10:08:20.595Z,15.33
2023-04-20T10:10:55.255Z,15.39
2023-04-20T10:13:34.191Z,15.54
2023-04-20T10:16:17.222Z,15.67
2023-04-20T10:19:07.711Z,15.90
2023-04-20T10:21:48.412Z,16.08
2023-04-20T10:24:31.593Z,16.22
2023-04-20T10:27:20.546Z,16.37
2023-04-20T10:29:54.799Z,16.46
2023-04-20T10:32:28.046Z,16.63
2023-04-20T10:35:06.624Z,16.91
2023-04-20T10:37:47.959Z,17.25
2023-04-20T10:40:16.634Z,17.54
2023-04-20T10:42:46.159Z,17.74
2023-04-20T10:45:16.875Z,17.92
2023-04-20T10:47:45.887Z,18.10
2023-04-20T10:50:18.368Z,18.27
2023-04-20T10:52:46.917Z,18.41
2023-04-20T10:55:20.835Z,18.56
2023-04-20T10:57:52.483Z,18.75
2023-04-20T11:00:26.571Z,18.96
2023-04-20T11:02:59.310Z,19.15
2023-04-20T11:05:28.093Z,19.30
2023-04-20T11:08:03.395Z,19.29
2023-04-20T11:10:42.826Z,19.30
2023-04-20T11:13:25.609Z,19.38
2023-04-20T11:15:54.033Z,19.53
2023-04-20T11:18:25.163Z,19.76
2023-04-20T11:20:55.290Z,20.00
2023-04-20T11:23:24.901Z,20.23
2023-04-20T11:25:57.475Z,20.50
2023-04-20T11:28:30.550Z,20.70
2023-04-20T11:30:59.030Z,20.84
2023-04-20T11:33:31.665Z,20.87
2023-04-20T11:36:01.121Z,20.92
2023-04-20T11:38:34.620Z,21.02
2023-04-20T11:41:08.067Z,20.90
2023-04-20T11:43:36.382Z,20.95
2023-04-20T11:46:17.144Z,21.06
2023-04-20T11:48:49.529Z,21.12
2023-04-20T11:51:17.893Z,21.06
2023-04-20T11:53:46.886Z,21.23
2023-04-20T11:56:15.126Z,21.48
2023-04-20T11:58:43.289Z,21.63
2023-04-20T12:01:11.605Z,21.77
2023-04-20T12:03:40.561Z,21.90
2023-04-20T12:06:09.282Z,22.09
2023-04-20T12:08:37.672Z,22.27
2023-04-20T12:11:06.039Z,22.35
2023-04-20T12:13:34.209Z,22.37
2023-04-20T12:16:02.405Z,22.43
2023-04-20T12:18:30.758Z,22.52
2023-04-20T12:20:59.952Z,22.73
2023-04-20T12:23:28.328Z,22.87
2023-04-20T12:25:56.919Z,22.71
2023-04-20T12:28:25.288Z,22.52
2023-04-20T12:30:53.497Z,22.36
2023-04-20T12:33:21.733Z,22.22
2023-04-20T12:35:49.910Z,22.40
2023-04-20T12:38:18.288Z,22.84
2023-04-20T12:40:46.765Z,23.02
2023-04-20T12:43:15.044Z,22.79
2023-04-20T12:45:43.207Z,22.51
2023-04-20T12:48:11.506Z,22.32
2023-04-20T12:50:39.962Z,22.07
2023-04-20T12:53:08.147Z,21.81
2023-04-20T12:55:36.410Z,21.67
2023-04-20T12:58:04.585Z,21.49
2023-04-20T13:00:33.170Z,21.17
2023-04-20T13:03:02.116Z,21.00
2023-04-20T13:05:30.737Z,20.88
2023-04-20T13:07:59.030Z,20.82
2023-04-20T13:10:27.388Z,20.80
2023-04-20T13:13:04.779Z,20.84
2023-04-20T13:18:06.635Z,20.65
2023-04-20T13:20:35.049Z,20.47
2023-04-20T13:23:04.326Z,20.45
2023-04-20T13:25:33.618Z,20.44
2023-04-20T13:28:03.450Z,20.47
2023-04-20T13:30:32.372Z,20.63
2023-04-20T13:33:00.881Z,20.79
2023-04-20T13:35:29.086Z,21.10
2023-04-20T13:37:57.456Z,21.18
2023-04-20T13:40:26.243Z,21.04
2023-04-20T13:42:54.832Z,20.80
2023-04-20T13:45:23.715Z,20.48
2023-04-20T13:47:54.981Z,20.12
2023-04-20T13:50:23.645Z,19.76
2023-04-20T13:52:54.889Z,19.42
2023-04-20T13:55:24.347Z,19.15
2023-04-20T13:57:53.595Z,18.96
2023-04-20T14:00:23.714Z,18.96
2023-04-20T14:02:52.355Z,19.21
2023-04-20T14:05:20.972Z,19.83
2023-04-20T14:07:49.150Z,20.54
2023-04-20T14:10:17.736Z,21.00
2023-04-20T14:12:46.208Z,21.18
2023-04-20T14:15:14.482Z,21.30
2023-04-20T14:17:42.687Z,21.25
2023-04-20T14:20:11.874Z,21.12
2023-04-20T14:22:40.040Z,20.97
2023-04-20T14:25:08.715Z,20.77
2023-04-20T14:27:36.986Z,20.55
2023-04-20T14:30:06.271Z,20.57
2023-04-20T14:32:35.501Z,20.88
2023-04-20T14:35:05.601Z,21.24
2023-04-20T14:37:34.286Z,21.69
2023-04-20T14:40:02.555Z,21.91
2023-04-20T14:42:30.939Z,21.78
2023-04-20T14:44:59.105Z,21.86
2023-04-20T14:47:27.321Z,22.08
2023-04-20T14:49:55.460Z,22.39
2023-04-20T14:52:23.832Z,22.42
2023-04-20T14:54:51.998Z,22.24
2023-04-20T14:57:20.692Z,22.21
2023-04-20T14:59:48.855Z,22.12
2023-04-20T15:02:18.735Z,21.85
2023-04-20T15:04:47.490Z,21.72
2023-04-20T15:07:15.825Z,21.86
2023-04-20T15:09:43.998Z,21.99
2023-04-20T15:12:12.374Z,21.91
2023-04-20T15:14:40.751Z,21.63
2023-04-20T15:17:09.033Z,21.39
2023-04-20T15:19:37.406Z,21.31
2023-04-20T15:22:05.698Z,21.17
2023-04-20T15:24:33.955Z,21.10
2023-04-20T15:27:03.541Z,21.24
2023-04-20T15:29:33.581Z,21.54
2023-04-20T15:32:01.798Z,21.91
2023-04-20T15:34:30.328Z,22.31
2023-04-20T15:36:58.476Z,22.82
2023-04-20T15:39:26.673Z,23.41
2023-04-20T15:41:54.860Z,23.81
2023-04-20T15:44:23.023Z,23.99
2023-04-20T15:46:51.297Z,23.70
2023-04-20T15:49:20.695Z,23.14
2023-04-20T15:51:48.967Z,22.57
2023-04-20T15:54:17.445Z,22.37
2023-04-20T15:56:46.234Z,22.41
2023-04-20T15:59:14.405Z,22.54
2023-04-20T16:01:42.630Z,22.52
2023-04-20T16:04:11.432Z,22.38
2023-04-20T16:06:41.285Z,22.25
2023-04-20T16:09:09.349Z,22.18
2023-04-20T16:11:37.520Z,22.10
2023-04-20T16:14:05.999Z,21.90
2023-04-20T16:16:34.336Z,21.59
2023-04-20T16:19:02.760Z,21.24
2023-04-20T16:21:30.921Z,20.92
2023-04-20T16:23:59.200Z,20.55
2023-04-20T16:26:27.372Z,20.23
2023-04-20T16:28:55.751Z,19.99
2023-04-20T16:31:24.207Z,19.79
2023-04-20T16:33:52.812Z,19.60
2023-04-20T16:36:21.496Z,19.31
2023-04-20T16:38:49.668Z,19.00
2023-04-20T16:41:18.163Z,18.79
2023-04-20T16:43:47.039Z,18.59
2023-04-20T16:46:16.627Z,18.45
2023-04-20T16:48:45.231Z,18.30
2023-04-20T16:51:13.811Z,18.17
2023-04-20T16:53:43.109Z,18.04
2023-04-20T16:56:12.401Z,17.92
2023-04-20T16:58:40.784Z,17.80
2023-04-20T17:01:09.480Z,17.68
2023-04-20T17:03:38.289Z,17.52
2023-04-20T17:06:09.936Z,17.38
2023-04-20T17:08:38.496Z,17.26
2023-04-20T17:11:07.074Z,17.14
2023-04-20T17:13:35.653Z,17.05
2023-04-20T17:16:04.514Z,16.94
2023-04-20T17:18:34.457Z,16.80
2023-04-20T17:21:02.942Z,16.68
2023-04-20T17:23:34.180Z,16.58
2023-04-20T17:26:03.478Z,16.48
2023-04-20T17:28:32.268Z,16.41
2023-04-20T17:31:01.059Z,16.35
2023-04-20T17:33:29.697Z,16.26
2023-04-20T17:36:01.289Z,16.18
2023-04-20T17:38:30.482Z,16.09
2023-04-20T17:41:01.217Z,16.02
2023-04-20T17:43:29.804Z,15.96
2023-04-20T17:46:00.936Z,15.91
2023-04-20T17:48:29.620Z,15.84
2023-04-20T17:51:00.365Z,15.75
2023-04-20T17:53:31.807Z,15.67
2023-04-20T17:56:03.773Z,15.59
2023-04-20T17:58:32.900Z,15.52
2023-04-20T18:01:01.586Z,15.43
2023-04-20T18:03:33.126Z,15.34
2023-04-20T18:06:04.847Z,15.26
2023-04-20T18:08:34.813Z,15.15
2023-04-20T18:11:05.853Z,15.04
2023-04-20T18:13:41.966Z,14.91
2023-04-20T18:16:13.645Z,14.76
2023-04-20T18:18:49.879Z,14.64
2023-04-20T18:21:18.563Z,14.52
2023-04-20T18:23:49.909Z,14.54
2023-04-20T18:26:25.049Z,15.09
2023-04-20T18:28:56.592Z,15.63
2023-04-20T18:31:27.983Z,16.02
2023-04-20T18:33:59.927Z,16.31
2023-04-20T18:36:34.017Z,16.42
2023-04-20T18:39:12.943Z,16.03
2023-04-20T18:41:54.114Z,15.55
2023-04-20T18:44:28.426Z,15.17
2023-04-20T18:47:00.032Z,14.86
2023-04-20T18:49:35.117Z,14.56
2023-04-20T18:52:06.162Z,14.41
2023-04-20T18:54:57.789Z,14.76
2023-04-20T18:57:32.737Z,15.21
2023-04-20T19:00:11.398Z,15.50
2023-04-20T19:02:46.610Z,15.72
2023-04-20T19:05:44.024Z,15.88
2023-04-20T19:08:18.136Z,16.00
2023-04-20T19:11:12.241Z,16.13
2023-04-20T19:13:48.684Z,16.26
2023-04-20T19:16:25.203Z,16.27
2023-04-20T19:19:03.053Z,15.79
2023-04-20T19:21:40.009Z,15.29
2023-04-20T19:24:20.695Z,14.86
2023-04-20T19:26:55.115Z,14.47
2023-04-20T19:29:35.572Z,14.27
2023-04-20T19:32:21.646Z,14.61
2023-04-20T19:34:57.924Z,14.98
2023-04-20T19:37:34.300Z,15.22
2023-04-20T19:40:16.824Z,15.40
2023-04-20T19:42:50.204Z,15.56
2023-04-20T19:45:23.896Z,15.71
2023-04-20T19:48:00.716Z,15.85
2023-04-20T19:50:42.387Z,15.95
2023-04-20T19:53:14.111Z,15.93
2023-04-20T19:55:48.884Z,15.41
2023-04-20T19:58:20.289Z,14.79
2023-04-20T20:00:54.385Z,14.29
2023-04-20T20:03:35.225Z,13.84
2023-04-20T20:06:09.483Z,13.57
2023-04-20T20:08:50.052Z,13.88
2023-04-20T20:11:25.595Z,14.20
2023-04-20T20:14:09.340Z,14.38
2023-04-20T20:16:57.464Z,14.50
2023-04-20T20:19:31.613Z,14.61
2023-04-20T20:22:05.588Z,14.70
2023-04-20T20:24:46.967Z,14.74
2023-04-20T20:27:28.451Z,14.79
2023-04-20T20:30:14.034Z,14.81
2023-04-20T20:32:57.392Z,14.82
2023-04-20T20:35:31.383Z,14.82
2023-04-20T20:38:10.497Z,14.82
2023-04-20T20:40:47.074Z,14.83
2023-04-20T20:43:30.292Z,14.83
2023-04-20T20:46:07.210Z,14.69
2023-04-20T20:48:48.447Z,14.03
2023-04-20T20:51:28.599Z,13.35
2023-04-20T20:54:06.514Z,12.77
2023-04-20T20:56:46.761Z,12.46
2023-04-20T20:59:18.423Z,12.76
2023-04-20T21:02:12.113Z,13.10
2023-04-20T21:04:53.586Z,13.33
2023-04-20T21:07:50.515Z,13.41
2023-04-20T21:10:32.096Z,13.59
2023-04-20T21:13:08.050Z,13.73
2023-04-20T21:15:45.531Z,13.85
2023-04-20T21:18:25.695Z,13.97
2023-04-20T21:21:06.055Z,14.07
2023-04-20T21:23:48.870Z,14.16
2023-04-20T21:26:35.931Z,14.26
2023-04-20T21:29:15.945Z,14.35
2023-04-20T21:32:09.933Z,14.43
2023-04-20T21:35:04.717Z,14.50
2023-04-20T21:37:44.249Z,14.56
2023-04-20T21:40:41.574Z,14.62
2023-04-20T21:43:26.892Z,14.66
2023-04-20T21:46:27.750Z,14.73
2023-04-20T21:49:08.285Z,14.77
2023-04-20T21:51:49.356Z,14.79
2023-04-20T21:54:53.519Z,14.80
2023-04-20T21:57:33.742Z,14.76
2023-04-20T22:00:15.820Z,14.74
2023-04-20T22:02:59.374Z,14.69
2023-04-20T22:05:43.803Z,14.63
2023-04-20T22:08:52.533Z,14.59
2023-04-20T22:11:49.912Z,14.56
2023-04-20T22:14:38.748Z,14.51
2023-04-20T22:17:22.424Z,14.30
2023-04-20T22:20:16.989Z,13.57
2023-04-20T22:23:10.944Z,12.75
2023-04-20T22:26:18.134Z,12.31
2023-04-20T22:28:55.728Z,12.63
2023-04-20T22:31:52.165Z,12.88
2023-04-20T22:34:41.223Z,13.03
2023-04-20T22:37:38.582Z,13.13
2023-04-20T22:40:30.625Z,13.20
2023-04-20T22:43:11.478Z,13.26
2023-04-20T22:46:22.808Z,13.30
2023-04-20T22:49:27.384Z,13.36
2023-04-20T22:52:15.625Z,13.41
2023-04-20T22:55:08.789Z,13.43
2023-04-20T22:58:00.200Z,13.44
2023-04-20T23:00:48.967Z,13.44
2023-04-20T23:03:33.514Z,13.44
2023-04-20T23:06:38.035Z,13.45
2023-04-20T23:09:42.355Z,13.45
2023-04-20T23:12:48.035Z,13.43
2023-04-20T23:15:40.035Z,13.43
2023-04-20T23:18:34.522Z,13.28
2023-04-20T23:21:35.515Z,12.50
2023-04-20T23:24:47.672Z,11.72
2023-04-20T23:27:58.746Z,11.06
2023-04-20T23:30:53.952Z,10.79
2023-04-20T23:34:11.458Z,11.25
2023-04-20T23:37:02.183Z,11.60
2023-04-20T23:40:23.128Z,11.83
2023-04-20T23:43:10.823Z,11.99
2023-04-20T23:46:10.136Z,12.13
2023-04-20T23:48:56.525Z,12.26
2023-04-20T23:51:47.477Z,12.38
2023-04-20T23:54:51.337Z,12.48
2023-04-20T23:58:00.268Z,12.54
